Time;durP1;ratioP1;P1;durP2;ratioP2;P2;SDS_P1;SDS_P2;PMS_P1;PMS_P2;Temp;Humidity;BMP_temperature;BMP_pressure;BME280_temperature;BME280_humidity;BME280_pressure;Samples;Min_cycle;Max_cycle;Signal;HPM_P1;HPM_P2
2023/09/25 00:00:56;;;;;;;1999.90;999.90;;;14.60;99.90;;;;;;5053150;28;20021;-77
2023/09/25 00:03:22;;;;;;;1999.90;999.90;;;14.60;99.90;;;;;;5053502;28;20103;-73
2023/09/25 00:05:48;;;;;;;1999.90;999.90;;;14.50;99.90;;;;;;5051990;28;20017;-77
2023/09/25 00:08:13;;;;;;;1999.90;999.90;;;14.50;99.90;;;;;;5053144;28;20090;-77
2023/09/25 00:10:40;;;;;;;1999.90;999.90;;;14.50;99.90;;;;;;5052797;28;20439;-77
2023/09/25 00:13:06;;;;;;;1999.90;999.90;;;14.60;99.90;;;;;;5053133;28;20079;-76
2023/09/25 00:15:32;;;;;;;1999.90;999.90;;;14.60;99.90;;;;;;5052964;28;20025;-77
2023/09/25 00:17:58;;;;;;;1999.90;999.90;;;14.60;99.90;;;;;;5053125;28;20039;-73
2023/09/25 00:20:24;;;;;;;1999.90;999.90;;;14.60;99.90;;;;;;5053012;28;20052;-77
2023/09/25 00:22:50;;;;;;;1999.90;999.90;;;14.70;99.90;;;;;;5052886;28;20116;-77
2023/09/25 00:25:18;;;;;;;1999.90;999.90;;;14.70;99.90;;;;;;5048260;28;20099;-77
2023/09/25 00:27:44;;;;;;;1999.90;999.90;;;14.80;99.90;;;;;;5031697;28;20036;-73
2023/09/25 00:30:11;;;;;;;1999.90;999.90;;;14.80;99.90;;;;;;5033179;28;20021;-73
2023/09/25 00:32:37;;;;;;;1999.90;999.90;;;14.90;99.90;;;;;;5032719;28;20029;-76
2023/09/25 00:35:07;;;;;;;1999.90;999.90;;;14.90;99.90;;;;;;5032598;28;20026;-77
2023/09/25 00:37:32;;;;;;;1999.90;999.90;;;14.90;99.90;;;;;;5031616;28;20498;-76
2023/09/25 00:40:12;;;;;;;1999.90;999.90;;;14.80;99.90;;;;;;5033064;28;20056;-73
2023/09/25 00:42:42;;;;;;;1999.90;999.90;;;14.70;99.90;;;;;;5032885;28;20495;-73
2023/09/25 00:45:09;;;;;;;1999.90;999.90;;;14.70;99.90;;;;;;5047597;28;20021;-77
2023/09/25 00:47:34;;;;;;;1999.90;999.90;;;14.70;99.90;;;;;;5052542;28;20106;-77
2023/09/25 00:50:03;;;;;;;1999.90;999.90;;;14.60;99.90;;;;;;5052132;28;20056;-77
2023/09/25 00:52:31;;;;;;;1999.90;999.90;;;14.60;99.90;;;;;;5052860;28;20021;-77
2023/09/25 00:54:57;;;;;;;1999.90;999.90;;;14.50;99.90;;;;;;5052623;28;20036;-73
2023/09/25 00:57:23;;;;;;;1999.90;999.90;;;14.40;99.90;;;;;;5051819;28;20562;-73
2023/09/25 00:59:49;;;;;;;1999.90;999.90;;;14.40;99.90;;;;;;5052501;28;20093;-77
2023/09/25 01:02:15;;;;;;;1999.90;999.90;;;14.30;99.90;;;;;;5052455;28;20021;-77
2023/09/25 01:04:41;;;;;;;1999.90;999.90;;;14.30;99.90;;;;;;5052401;28;20032;-77
2023/09/25 01:07:06;;;;;;;1999.90;999.90;;;14.30;99.90;;;;;;5052566;28;20107;-74
2023/09/25 01:09:32;;;;;;;1999.90;999.90;;;14.30;99.90;;;;;;5052382;28;20052;-74
2023/09/25 01:11:57;;;;;;;1999.90;999.90;;;14.30;99.90;;;;;;5051010;28;20408;-77
2023/09/25 01:14:24;;;;;;;1999.90;999.90;;;14.20;99.90;;;;;;5052476;28;20033;-73
2023/09/25 01:16:50;;;;;;;1999.90;999.90;;;14.20;99.90;;;;;;5052259;28;20025;-77
2023/09/25 01:19:16;;;;;;;1999.90;999.90;;;14.20;99.90;;;;;;5052179;28;20021;-77
2023/09/25 01:21:46;;;;;;;1999.90;999.90;;;14.10;99.90;;;;;;5051081;28;20033;-74
2023/09/25 01:24:12;;;;;;;1999.90;999.90;;;14.10;99.90;;;;;;5052192;28;20404;-73
2023/09/25 01:26:37;;;;;;;1999.90;999.90;;;14.10;99.90;;;;;;5051942;28;20043;-76
2023/09/25 01:29:03;;;;;;;1999.90;999.90;;;14.10;99.90;;;;;;5052225;28;20025;-73
2023/09/25 01:31:28;;;;;;;1999.90;999.90;;;14.10;99.90;;;;;;5052513;28;20513;-77
2023/09/25 01:33:54;;;;;;;1999.90;999.90;;;14.10;99.90;;;;;;5052297;28;20108;-73
2023/09/25 01:36:20;;;;;;;1999.90;999.90;;;14.00;99.90;;;;;;5052289;28;20037;-77
2023/09/25 01:38:48;;;;;;;1999.90;999.90;;;14.00;99.90;;;;;;5052308;28;20029;-77
2023/09/25 01:41:15;;;;;;;1999.90;999.90;;;14.00;99.90;;;;;;5052267;28;20021;-77
2023/09/25 01:43:44;;;;;;;1999.90;999.90;;;14.00;99.90;;;;;;5052049;28;20108;-77
2023/09/25 01:46:09;;;;;;;1999.90;999.90;;;14.00;99.90;;;;;;5055173;28;20113;-73
2023/09/25 01:48:35;;;;;;;1999.90;999.90;;;14.00;99.90;;;;;;5055685;28;20116;-73
2023/09/25 01:51:10;;;;;;;1999.90;999.90;;;14.00;99.90;;;;;;5054113;28;20029;-74
2023/09/25 01:53:36;;;;;;;1999.90;999.90;;;14.00;99.90;;;;;;5054320;28;20484;-77
2023/09/25 01:56:12;;;;;;;1999.90;999.90;;;13.90;99.90;;;;;;5055262;28;20025;-73
2023/09/25 01:58:40;;;;;;;1999.90;999.90;;;13.90;99.90;;;;;;5055474;28;20033;-74
2023/09/25 02:01:05;;;;;;;1999.90;999.90;;;13.90;99.90;;;;;;5054137;28;20021;-73
2023/09/25 02:03:31;;;;;;;1999.90;999.90;;;13.80;99.90;;;;;;5054173;28;20049;-77
2023/09/25 02:05:57;;;;;;;1999.90;999.90;;;13.80;99.90;;;;;;5050557;28;20377;-74
2023/09/25 02:08:22;;;;;;;1999.90;999.90;;;13.80;99.90;;;;;;5035441;28;20029;-77
2023/09/25 02:10:48;;;;;;;1999.90;999.90;;;13.80;99.90;;;;;;5036982;28;20060;-77
2023/09/25 02:13:14;;;;;;;1999.90;999.90;;;13.70;99.90;;;;;;5055368;28;20025;-73
2023/09/25 02:15:40;;;;;;;1999.90;999.90;;;13.70;99.90;;;;;;5055079;28;20021;-73
2023/09/25 02:18:06;;;;;;;1999.90;999.90;;;13.70;99.90;;;;;;5053884;28;20380;-73
2023/09/25 02:20:31;;;;;;;1999.90;999.90;;;13.70;99.90;;;;;;5055315;28;20029;-73
2023/09/25 02:22:57;;;;;;;1999.90;999.90;;;13.70;99.90;;;;;;5054824;28;20063;-77
2023/09/25 02:25:22;;;;;;;1999.90;999.90;;;13.70;99.90;;;;;;5054713;28;20512;-73
2023/09/25 02:27:48;;;;;;;1999.90;999.90;;;13.70;99.90;;;;;;5054808;28;20029;-73
2023/09/25 02:30:14;;;;;;;1999.90;999.90;;;13.70;99.90;;;;;;5053835;28;20060;-77
2023/09/25 02:32:43;;;;;;;1999.90;999.90;;;13.60;99.90;;;;;;5055092;28;20391;-74
2023/09/25 02:35:10;;;;;;;1999.90;999.90;;;13.60;99.90;;;;;;5054774;28;20098;-74
2023/09/25 02:37:37;;;;;;;1999.90;999.90;;;13.60;99.90;;;;;;5054845;28;20029;-73
2023/09/25 02:40:04;;;;;;;1999.90;999.90;;;13.60;99.90;;;;;;5053408;28;20107;-73
2023/09/25 02:42:30;;;;;;;1999.90;999.90;;;13.60;99.90;;;;;;5054716;28;20021;-77
2023/09/25 02:44:56;;;;;;;1999.90;999.90;;;13.60;99.90;;;;;;5054527;28;20025;-73
2023/09/25 02:47:21;;;;;;;1999.90;999.90;;;13.60;99.90;;;;;;5054707;28;20479;-77
2023/09/25 02:49:47;;;;;;;1999.90;999.90;;;13.60;99.90;;;;;;5054766;28;20064;-77
2023/09/25 02:52:12;;;;;;;1999.90;999.90;;;13.70;99.90;;;;;;5054673;28;20227;-73
2023/09/25 02:54:38;;;;;;;1999.90;999.90;;;13.60;99.90;;;;;;5054638;28;20025;-74
2023/09/25 02:57:04;;;;;;;1999.90;999.90;;;13.60;99.90;;;;;;5052394;28;20416;-77
2023/09/25 02:59:29;;;;;;;1999.90;999.90;;;13.60;99.90;;;;;;5054408;28;20017;-77
2023/09/25 03:01:55;;;;;;;1999.90;999.90;;;13.60;99.90;;;;;;5054546;28;20043;-77
2023/09/25 03:04:21;;;;;;;1999.90;999.90;;;13.60;99.90;;;;;;5054072;28;20017;-73
2023/09/25 03:06:47;;;;;;;1999.90;999.90;;;13.60;99.90;;;;;;5053034;28;20033;-73
2023/09/25 03:09:12;;;;;;;1999.90;999.90;;;13.60;99.90;;;;;;5054028;28;20028;-77
2023/09/25 03:11:38;;;;;;;1999.90;999.90;;;13.60;99.90;;;;;;5052784;28;20064;-73
2023/09/25 03:14:04;;;;;;;1999.90;999.90;;;13.70;99.90;;;;;;5054008;28;20029;-77
2023/09/25 03:16:30;;;;;;;1999.90;999.90;;;13.80;99.90;;;;;;5053899;28;20029;-73
2023/09/25 03:18:56;;;;;;;1999.90;999.90;;;13.90;99.90;;;;;;5052365;28;20021;-72
2023/09/25 03:21:22;;;;;;;1999.90;999.90;;;13.90;99.90;;;;;;5052759;28;20029;-77
2023/09/25 03:23:48;;;;;;;1999.90;999.90;;;13.90;99.90;;;;;;5053602;28;20401;-77
2023/09/25 03:26:18;;;;;;;1999.90;999.90;;;13.90;99.90;;;;;;5041522;28;20033;-77
2023/09/25 03:28:45;;;;;;;1999.90;999.90;;;13.90;99.90;;;;;;5033678;28;20037;-73
2023/09/25 03:31:11;;;;;;;1999.90;999.90;;;13.90;99.90;;;;;;5035999;28;20029;-73
2023/09/25 03:33:38;;;;;;;1999.90;999.90;;;13.90;99.90;;;;;;5053713;28;20025;-77
2023/09/25 03:36:05;;;;;;;1999.90;999.90;;;13.90;99.90;;;;;;5053866;28;20094;-77
2023/09/25 03:38:31;;;;;;;1999.90;999.90;;;13.80;99.90;;;;;;5053192;28;20040;-76
2023/09/25 03:40:57;;;;;;;1999.90;999.90;;;13.80;99.90;;;;;;5053310;28;20108;-73
2023/09/25 03:43:23;;;;;;;1999.90;999.90;;;13.80;99.90;;;;;;5053641;28;20099;-73
2023/09/25 03:45:48;;;;;;;1999.90;999.90;;;13.80;99.90;;;;;;5053325;28;20025;-73
2023/09/25 03:48:14;;;;;;;1999.90;999.90;;;13.80;99.90;;;;;;5053504;28;20024;-73
2023/09/25 03:50:40;;;;;;;1999.90;999.90;;;13.80;99.90;;;;;;5053272;28;20025;-77
2023/09/25 03:53:05;;;;;;;1999.90;999.90;;;13.80;99.90;;;;;;5053166;28;20377;-74
2023/09/25 03:55:31;;;;;;;1999.90;999.90;;;13.80;99.90;;;;;;5053308;28;20131;-77
2023/09/25 03:57:56;;;;;;;1999.90;999.90;;;13.80;99.90;;;;;;5053190;28;20025;-73
2023/09/25 04:00:23;;;;;;;1999.90;999.90;;;13.80;99.90;;;;;;5053124;28;20380;-77
2023/09/25 04:02:49;;;;;;;1999.90;999.90;;;13.80;99.90;;;;;;5053489;28;20088;-77
2023/09/25 04:05:14;;;;;;;1999.90;999.90;;;13.80;99.90;;;;;;5052523;28;20021;-77
2023/09/25 04:07:40;;;;;;;1999.90;999.90;;;13.70;99.90;;;;;;5052619;28;20021;-73
2023/09/25 04:10:07;;;;;;;1999.90;999.90;;;13.80;99.90;;;;;;5052772;28;20056;-74
2023/09/25 04:12:34;;;;;;;1999.90;999.90;;;13.80;99.90;;;;;;5052914;28;20017;-73
2023/09/25 04:15:08;;;;;;;1999.90;999.90;;;13.80;99.90;;;;;;5051509;28;20573;-73
2023/09/25 04:17:33;;;;;;;1999.90;999.90;;;13.90;99.90;;;;;;5053187;28;20132;-77
2023/09/25 04:19:59;;;;;;;1999.90;999.90;;;13.90;99.90;;;;;;5052599;28;20104;-77
2023/09/25 04:22:25;;;;;;;1999.90;999.90;;;13.90;99.90;;;;;;5052901;28;20396;-73
2023/09/25 04:24:52;;;;;;;1999.90;999.90;;;13.90;99.90;;;;;;5051692;28;20170;-74
2023/09/25 04:27:18;;;;;;;1999.90;999.90;;;13.90;99.90;;;;;;5033255;28;20025;-77
2023/09/25 04:29:44;;;;;;;1999.90;999.90;;;13.90;99.90;;;;;;5032858;28;20033;-74
2023/09/25 04:32:10;;;;;;;1999.90;999.90;;;13.90;99.90;;;;;;5031756;28;20361;-77
2023/09/25 04:34:36;;;;;;;1999.90;999.90;;;14.00;99.90;;;;;;5031450;28;20029;-74
2023/09/25 04:37:03;;;;;;;1999.90;999.90;;;14.00;99.90;;;;;;5033180;28;20065;-73
2023/09/25 04:39:32;;;;;;;1999.90;999.90;;;13.90;99.90;;;;;;5032951;28;20037;-77
2023/09/25 04:41:59;;;;;;;1999.90;999.90;;;13.90;99.90;;;;;;5033179;28;20108;-77
2023/09/25 04:44:25;;;;;;;1999.90;999.90;;;13.90;99.90;;;;;;5037226;28;20017;-77
2023/09/25 04:46:50;;;;;;;1999.90;999.90;;;13.90;99.90;;;;;;5052748;28;20036;-74
2023/09/25 04:49:17;;;;;;;1999.90;999.90;;;13.90;99.90;;;;;;5052364;28;20461;-73
2023/09/25 04:51:43;;;;;;;1999.90;999.90;;;13.90;99.90;;;;;;5052881;28;20099;-74
2023/09/25 04:54:10;;;;;;;1999.90;999.90;;;13.90;99.90;;;;;;5052708;28;20120;-77
2023/09/25 04:56:36;;;;;;;1999.90;999.90;;;13.90;99.90;;;;;;5048090;28;20575;-77
2023/09/25 04:59:03;;;;;;;1999.90;999.90;;;14.00;99.90;;;;;;5052193;28;20112;-74
2023/09/25 05:01:28;;;;;;;1999.90;999.90;;;14.00;99.90;;;;;;5052430;28;20082;-74
2023/09/25 05:03:54;;;;;;;1999.90;999.90;;;14.00;99.90;;;;;;5052066;28;20475;-73
2023/09/25 05:06:20;;;;;;;1999.90;999.90;;;14.10;99.90;;;;;;5052263;28;20021;-77
2023/09/25 05:08:45;;;;;;;1999.90;999.90;;;14.10;99.90;;;;;;5051461;28;20078;-77
2023/09/25 05:11:11;;;;;;;1999.90;999.90;;;14.10;99.90;;;;;;5051664;28;20029;-77
2023/09/25 05:13:36;;;;;;;1999.90;999.90;;;14.20;99.90;;;;;;5052135;28;20029;-73
2023/09/25 05:16:03;;;;;;;1999.90;999.90;;;14.40;99.90;;;;;;5050867;28;20031;-74
2023/09/25 05:18:29;;;;;;;1999.90;999.90;;;14.50;99.90;;;;;;5052874;28;20107;-73
2023/09/25 05:20:57;;;;;;;1999.90;999.90;;;14.50;99.90;;;;;;5055675;28;20376;-77
2023/09/25 05:23:23;;;;;;;1999.90;999.90;;;14.60;99.90;;;;;;5054472;28;20430;-77
2023/09/25 05:25:49;;;;;;;1999.90;999.90;;;14.60;99.90;;;;;;5046742;28;20046;-74
2023/09/25 05:28:14;;;;;;;1999.90;999.90;;;14.60;99.90;;;;;;5035953;28;20496;-73
2023/09/25 05:30:40;;;;;;;1999.90;999.90;;;14.60;99.90;;;;;;5044460;28;20037;-75
2023/09/25 05:33:06;;;;;;;1999.90;999.90;;;14.70;99.90;;;;;;5054045;28;20049;-77
2023/09/25 05:35:32;;;;;;;1999.90;999.90;;;14.70;99.90;;;;;;5055293;28;20057;-74
2023/09/25 05:37:57;;;;;;;1999.90;999.90;;;14.80;99.90;;;;;;5052926;28;20068;-78
2023/09/25 05:40:23;;;;;;;1999.90;999.90;;;14.80;99.90;;;;;;5053078;28;20025;-77
2023/09/25 05:42:49;;;;;;;1999.90;999.90;;;14.90;99.90;;;;;;5055204;28;20024;-74
2023/09/25 05:45:17;;;;;;;1999.90;999.90;;;15.00;99.90;;;;;;5053533;28;20403;-77
2023/09/25 05:47:44;;;;;;;1999.90;999.90;;;14.90;99.90;;;;;;5054960;28;20025;-77
2023/09/25 05:50:10;;;;;;;1999.90;999.90;;;15.00;99.90;;;;;;5046965;28;20025;-78
2023/09/25 05:52:39;;;;;;;1999.90;999.90;;;15.00;99.90;;;;;;5042461;28;20550;-74
2023/09/25 05:55:06;;;;;;;1999.90;999.90;;;15.00;99.90;;;;;;5055067;28;20029;-74
2023/09/25 05:57:32;;;;;;;1999.90;999.90;;;15.00;99.90;;;;;;5054832;28;20534;-74
2023/09/25 06:00:03;;;;;;;1999.90;999.90;;;14.90;99.90;;;;;;5052567;28;20025;-77
2023/09/25 06:02:33;;;;;;;1999.90;999.90;;;14.90;99.90;;;;;;5053217;28;20029;-78
2023/09/25 06:04:58;;;;;;;1999.90;999.90;;;14.90;99.90;;;;;;5054332;28;20557;-77
2023/09/25 06:07:24;;;;;;;1999.90;999.90;;;15.00;99.90;;;;;;5054756;28;20107;-74
2023/09/25 06:09:50;;;;;;;1999.90;999.90;;;15.00;99.90;;;;;;5054000;28;20041;-74
2023/09/25 06:12:15;;;;;;;1999.90;999.90;;;15.10;99.90;;;;;;5054013;28;20060;-77
2023/09/25 06:14:41;;;;;;;1999.90;999.90;;;15.10;99.90;;;;;;5053053;28;20503;-77
2023/09/25 06:17:09;;;;;;;1999.90;999.90;;;15.10;99.90;;;;;;5052044;28;20031;-74
2023/09/25 06:19:37;;;;;;;1999.90;999.90;;;15.20;99.90;;;;;;5051830;28;20029;-74
2023/09/25 06:22:03;;;;;;;1999.90;999.90;;;15.20;99.90;;;;;;5071118;28;20032;-74
2023/09/25 06:24:29;;;;;;;1999.90;999.90;;;15.30;99.90;;;;;;5055572;28;20538;-74
2023/09/25 06:26:55;;;;;;;1999.90;999.90;;;15.30;99.90;;;;;;5059363;28;20036;-78
2023/09/25 06:29:21;;;;;;;1999.90;999.90;;;15.40;99.90;;;;;;5047712;28;20115;-78
2023/09/25 06:31:47;;;;;;;1999.90;999.90;;;15.40;99.90;;;;;;5044913;28;20097;-74
2023/09/25 06:34:13;;;;;;;1999.90;999.90;;;15.50;99.90;;;;;;5051150;28;20044;-74
2023/09/25 06:36:38;;;;;;;1999.90;999.90;;;15.60;99.90;;;;;;5052439;28;20037;-77
2023/09/25 06:39:11;;;;;;;1999.90;999.90;;;15.70;99.90;;;;;;5052998;28;20029;-78
2023/09/25 06:41:37;;;;;;;1999.90;999.90;;;15.80;99.90;;;;;;5049560;28;20108;-78
2023/09/25 06:44:07;;;;;;;1999.90;999.90;;;15.90;99.90;;;;;;5048911;28;20033;-78
2023/09/25 06:46:33;;;;;;;1999.90;999.90;;;16.10;99.90;;;;;;5049567;28;20029;-74
2023/09/25 06:49:02;;;;;;;1999.90;999.90;;;16.20;99.90;;;;;;5049339;28;20142;-74
2023/09/25 06:51:29;;;;;;;1999.90;999.90;;;16.30;99.90;;;;;;5044068;28;20120;-78
2023/09/25 06:53:55;;;;;;;1999.90;999.90;;;16.50;99.90;;;;;;5046802;28;20243;-77
2023/09/25 06:56:21;;;;;;;1999.90;999.90;;;16.70;99.90;;;;;;5050183;28;20021;-78
2023/09/25 06:58:47;;;;;;;1999.90;999.90;;;16.80;99.90;;;;;;5050081;28;20032;-74
2023/09/25 07:01:13;;;;;;;1999.90;999.90;;;16.90;99.90;;;;;;5048201;28;20056;-75
2023/09/25 07:03:38;;;;;;;1999.90;999.90;;;17.00;99.90;;;;;;5049541;28;20033;-77
2023/09/25 07:06:04;;;;;;;1999.90;999.90;;;16.90;99.90;;;;;;5050778;28;20029;-78
2023/09/25 07:08:30;;;;;;;1999.90;999.90;;;16.90;99.90;;;;;;5050077;28;20124;-78
2023/09/25 07:10:58;;;;;;;1999.90;999.90;;;16.90;99.90;;;;;;5042914;28;20088;-74
2023/09/25 07:13:24;;;;;;;1999.90;999.90;;;17.00;99.90;;;;;;5049909;28;20065;-75
2023/09/25 07:15:50;;;;;;;1999.90;999.90;;;17.00;99.90;;;;;;5049954;28;20044;-78
2023/09/25 07:18:17;;;;;;;1999.90;999.90;;;17.10;99.90;;;;;;5051261;28;20052;-78
2023/09/25 07:20:45;;;;;;;1999.90;999.90;;;17.10;99.90;;;;;;5049497;28;20036;-77
2023/09/25 07:23:11;;;;;;;1999.90;999.90;;;17.10;99.90;;;;;;5050497;28;20048;-77
2023/09/25 07:25:37;;;;;;;1999.90;999.90;;;17.20;99.90;;;;;;5046789;28;20040;-74
2023/09/25 07:28:02;;;;;;;1999.90;999.90;;;17.30;99.90;;;;;;5044676;28;20118;-76
2023/09/25 07:30:28;;;;;;;1999.90;999.90;;;17.40;99.90;;;;;;5036640;28;20043;-77
2023/09/25 07:32:54;;;;;;;1999.90;999.90;;;17.50;99.90;;;;;;5046819;28;20059;-79
2023/09/25 07:35:20;;;;;;;1999.90;999.90;;;17.60;99.90;;;;;;5049666;28;20107;-80
2023/09/25 07:37:47;;;;;;;1999.90;999.90;;;17.60;99.90;;;;;;5049155;28;20507;-74
2023/09/25 07:40:14;;;;;;;1999.90;999.90;;;17.70;99.90;;;;;;5043170;28;20428;-75
2023/09/25 07:42:40;;;;;;;1999.90;999.90;;;17.80;99.90;;;;;;5043061;28;20074;-78
2023/09/25 07:45:11;;;;;;;1999.90;999.90;;;17.90;99.90;;;;;;5049419;28;20536;-78
2023/09/25 07:47:38;;;;;;;1999.90;999.90;;;18.00;99.90;;;;;;5047860;28;20029;-78
2023/09/25 07:50:11;;;;;;;1999.90;999.90;;;18.10;99.90;;;;;;5046063;28;20035;-75
2023/09/25 07:52:37;;;;;;;;;;;18.20;99.90;;;;;;5043744;28;20025;-76
2023/09/25 07:55:04;;;;;;;1999.90;999.90;;;18.30;99.90;;;;;;5034493;28;19920;-79
2023/09/25 07:57:34;;;;;;;1999.90;999.90;;;18.40;99.90;;;;;;5044033;28;20079;-78
2023/09/25 08:00:03;;;;;;;1999.90;999.90;;;18.50;99.90;;;;;;5042561;28;20121;-75
2023/09/25 08:02:38;;;;;;;1999.90;999.90;;;18.60;99.90;;;;;;5042194;28;20126;-75
2023/09/25 08:05:06;;;;;;;1999.90;999.90;;;18.60;99.90;;;;;;5046751;28;20047;-75
2023/09/25 08:07:32;;;;;;;1999.90;999.90;;;18.70;99.90;;;;;;5045403;28;20102;-75
2023/09/25 08:09:59;;;;;;;1999.90;999.90;;;18.70;99.90;;;;;;5049935;28;20033;-78
2023/09/25 08:12:25;;;;;;;1999.90;999.90;;;18.80;99.90;;;;;;5045453;28;20472;-79
2023/09/25 08:14:51;;;;;;;1999.90;999.90;;;18.90;99.90;;;;;;5048439;28;20059;-79
2023/09/25 08:17:16;;;;;;;1999.90;999.90;;;19.00;99.90;;;;;;5050485;28;20400;-79
2023/09/25 08:19:42;;;;;;;1999.90;999.90;;;19.10;99.90;;;;;;5049817;28;20067;-75
2023/09/25 08:22:08;;;;;;;1999.90;999.90;;;19.20;99.90;;;;;;5049879;28;20128;-79
2023/09/25 08:24:33;;;;;;;1999.90;999.90;;;19.30;99.90;;;;;;5049524;28;20092;-79
2023/09/25 08:26:59;;;;;;;1999.90;999.90;;;19.40;99.90;;;;;;5048372;28;20028;-74
2023/09/25 08:29:25;;;;;;;1999.90;999.90;;;19.50;99.90;;;;;;5048848;28;20113;-75
2023/09/25 08:31:51;;;;;;;1999.90;999.90;;;19.60;99.90;;;;;;5047400;28;20108;-75
2023/09/25 08:34:17;;;;;;;1999.90;999.90;;;19.80;99.90;;;;;;5048155;28;20406;-79
2023/09/25 08:36:42;;;;;;;1999.90;999.90;;;19.90;99.90;;;;;;5048403;28;20029;-79
2023/09/25 08:39:10;;;;;;;1999.90;999.90;;;20.00;99.90;;;;;;5050021;28;20060;-75
2023/09/25 08:41:36;;;;;;;1999.90;999.90;;;20.10;99.90;;;;;;5048319;28;20521;-75
2023/09/25 08:44:02;;;;;;;1999.90;999.90;;;20.10;99.90;;;;;;5049367;28;20033;-75
2023/09/25 08:46:28;;;;;;;1999.90;999.90;;;20.20;99.90;;;;;;5042732;28;20035;-75
2023/09/25 08:48:56;;;;;;;1999.90;999.90;;;20.30;99.90;;;;;;5046497;28;20124;-75
2023/09/25 08:51:24;;;;;;;1999.90;999.90;;;20.40;99.90;;;;;;5049955;28;20035;-79
2023/09/25 08:53:51;;;;;;;1999.90;999.90;;;20.50;99.90;;;;;;5047793;28;20587;-79
2023/09/25 08:56:18;;;;;;;1999.90;999.90;;;20.60;99.90;;;;;;5047174;28;20120;-75
2023/09/25 08:58:44;;;;;;;1999.90;999.90;;;20.90;99.90;;;;;;5053206;28;20545;-76
2023/09/25 09:01:10;;;;;;;1999.90;999.90;;;20.90;99.90;;;;;;5050373;28;20125;-75
2023/09/25 09:03:36;;;;;;;1999.90;999.90;;;21.00;99.90;;;;;;5049995;28;20033;-79
2023/09/25 09:06:02;;;;;;;1999.90;999.90;;;21.00;99.90;;;;;;5049468;28;20155;-79
2023/09/25 09:08:31;;;;;;;1999.90;999.90;;;21.20;99.90;;;;;;5049037;28;20407;-75
2023/09/25 09:10:56;;;;;;;1999.90;999.90;;;21.30;99.90;;;;;;5051508;28;20033;-75
2023/09/25 09:13:22;;;;;;;1999.90;999.90;;;21.40;99.90;;;;;;5051450;28;20510;-79
2023/09/25 09:15:49;;;;;;;1999.90;999.90;;;21.40;99.90;;;;;;5051366;28;20534;-79
2023/09/25 09:18:23;;;;;;;1999.90;999.90;;;21.50;99.90;;;;;;5052522;28;20095;-79
2023/09/25 09:20:49;;;;;;;1999.90;999.90;;;21.60;99.90;;;;;;5051954;28;20020;-75
2023/09/25 09:23:15;;;;;;;1999.90;999.90;;;21.60;99.90;;;;;;5040918;28;20022;-75
2023/09/25 09:25:48;;;;;;;1999.90;999.90;;;21.40;99.90;;;;;;5050673;28;20041;-75
2023/09/25 09:28:14;;;;;;;1999.90;999.90;;;21.30;99.90;;;;;;5049578;28;20036;-75
2023/09/25 09:30:41;;;;;;;1999.90;999.90;;;21.30;99.90;;;;;;5047048;28;20032;-75
2023/09/25 09:33:10;;;;;;;1999.90;999.90;;;21.10;99.90;;;;;;5053390;28;20060;-75
2023/09/25 09:35:36;;;;;;;1999.90;999.90;;;21.00;99.90;;;;;;5049495;28;20033;-75
2023/09/25 09:38:05;;;;;;;1999.90;999.90;;;20.90;99.90;;;;;;5051598;28;20076;-78
2023/09/25 09:40:31;;;;;;;1999.90;999.90;;;20.80;99.90;;;;;;5048121;28;20017;-79
2023/09/25 09:42:58;;;;;;;1999.90;999.90;;;20.80;99.90;;;;;;5052382;28;20033;-79
2023/09/25 09:45:26;;;;;;;1999.90;999.90;;;20.80;99.90;;;;;;5045422;28;20516;-79
2023/09/25 09:47:55;;;;;;;1999.90;999.90;;;20.80;99.90;;;;;;5050558;28;20043;-75
2023/09/25 09:50:28;;;;;;;1999.90;999.90;;;20.80;99.90;;;;;;5048275;28;20028;-79
2023/09/25 09:52:54;;;;;;;1999.90;999.90;;;21.00;99.90;;;;;;5047400;28;20394;-79
2023/09/25 09:55:21;;;;;;;1999.90;999.90;;;21.00;99.90;;;;;;5051629;28;20025;-79
2023/09/25 09:57:49;;;;;;;1999.90;999.90;;;21.10;99.90;;;;;;5049596;28;20027;-79
2023/09/25 10:00:16;;;;;;;1999.90;999.90;;;21.20;99.90;;;;;;5051243;28;20756;-78
2023/09/25 10:02:43;;;;;;;1999.90;999.90;;;21.20;99.90;;;;;;5048373;28;20368;-75
2023/09/25 10:05:11;;;;;;;1999.90;999.90;;;21.30;99.90;;;;;;5049524;28;20029;-78
2023/09/25 10:08:06;;;;;;;1999.90;999.90;;;21.40;99.90;;;;;;5050542;28;20033;-79
2023/09/25 10:10:33;;;;;;;1999.90;999.90;;;21.50;99.90;;;;;;5045219;28;20407;-75
2023/09/25 10:12:59;;;;;;;1999.90;999.90;;;21.60;99.90;;;;;;5045635;28;20033;-75
2023/09/25 10:15:25;;;;;;;1999.90;999.90;;;21.70;99.90;;;;;;5052041;28;20029;-75
2023/09/25 10:17:53;;;;;;;1999.90;999.90;;;21.90;99.90;;;;;;5051631;28;20029;-79
2023/09/25 10:20:32;;;;;;;1999.90;999.90;;;22.20;99.90;;;;;;5052431;28;20029;-79
2023/09/25 10:23:09;;;;;;;1999.90;999.90;;;22.40;99.90;;;;;;5051840;28;20079;-79
2023/09/25 10:25:47;;;;;;;1999.90;999.90;;;22.50;99.90;;;;;;5051709;28;20049;-79
2023/09/25 10:28:17;;;;;;;1999.90;999.90;;;22.70;99.90;;;;;;5045653;28;20037;-75
2023/09/25 10:30:43;;;;;;;1999.90;999.90;;;22.70;99.90;;;;;;5051460;28;20032;-75
2023/09/25 10:33:09;;;;;;;1999.90;999.90;;;22.60;99.90;;;;;;5051416;28;20037;-74
2023/09/25 10:35:48;;;;;;;1999.90;999.90;;;22.70;99.90;;;;;;5050555;28;20025;-74
2023/09/25 10:38:26;;;;;;;1999.90;999.90;;;22.60;99.90;;;;;;5051141;28;20450;-78
2023/09/25 10:40:54;;;;;;;1999.90;999.90;;;22.60;99.90;;;;;;5052657;28;20028;-75
2023/09/25 10:43:22;;;;;;;1999.90;999.90;;;22.90;99.90;;;;;;5048771;28;20075;-78
2023/09/25 10:45:48;;;;;;;1999.90;999.90;;;23.10;99.90;;;;;;5050746;28;20021;-77
2023/09/25 10:48:14;;;;;;;1999.90;999.90;;;23.40;99.90;;;;;;5050153;28;20037;-77
2023/09/25 10:50:43;;;;;;;1999.90;999.90;;;23.40;99.90;;;;;;5051527;28;20025;-77
2023/09/25 10:53:09;;;;;;;1999.90;999.90;;;23.60;99.90;;;;;;5051187;28;20029;-76
2023/09/25 10:55:35;;;;;;;1999.90;999.90;;;23.50;99.90;;;;;;5049075;28;20033;-76
2023/09/25 10:58:03;;;;;;;1999.90;999.90;;;23.50;99.90;;;;;;5049410;28;20032;-77
2023/09/25 11:00:29;;;;;;;1999.90;999.90;;;23.30;99.90;;;;;;5044773;28;20049;-76
2023/09/25 11:02:55;;;;;;;1999.90;999.90;;;23.00;99.90;;;;;;5026439;28;20029;-77
2023/09/25 11:05:21;;;;;;;1999.90;999.90;;;22.90;99.90;;;;;;5023324;28;20036;-76
2023/09/25 11:07:47;;;;;;;1999.90;999.90;;;23.00;99.90;;;;;;5025394;28;20061;-76
2023/09/25 11:10:13;;;;;;;1999.90;999.90;;;22.90;99.90;;;;;;5024838;28;20051;-77
2023/09/25 11:12:40;;;;;;;1999.90;999.90;;;23.10;99.90;;;;;;5025304;28;20859;-76
2023/09/25 11:15:11;;;;;;;1999.90;999.90;;;23.50;99.90;;;;;;5024667;28;20107;-76
2023/09/25 11:17:38;;;;;;;1999.90;999.90;;;23.80;99.90;;;;;;5024606;28;20025;-76
2023/09/25 11:20:11;;;;;;;1999.90;999.90;;;23.90;99.90;;;;;;5023776;28;20093;-76
2023/09/25 11:22:41;;;;;;;1999.90;999.90;;;23.90;99.90;;;;;;5025421;28;20033;-76
2023/09/25 11:25:13;;;;;;;1999.90;999.90;;;24.20;99.90;;;;;;5024531;28;20838;-78
2023/09/25 11:27:49;;;;;;;1999.90;999.90;;;24.40;99.90;;;;;;5022951;28;20358;-77
2023/09/25 11:30:14;;;;;;;1999.90;999.90;;;24.40;99.90;;;;;;5020946;28;20067;-77
2023/09/25 11:32:42;;;;;;;1999.90;999.90;;;24.60;99.90;;;;;;5023745;28;20029;-76
2023/09/25 11:35:12;;;;;;;1999.90;999.90;;;24.70;99.90;;;;;;5025882;28;20037;-76
2023/09/25 11:37:52;;;;;;;1999.90;999.90;;;25.10;99.90;;;;;;5022878;28;20122;-77
2023/09/25 11:40:18;;;;;;;1999.90;999.90;;;25.10;99.90;;;;;;5024034;28;20033;-76
2023/09/25 11:42:43;;;;;;;1999.90;999.90;;;25.10;99.90;;;;;;5023413;28;20025;-77
2023/09/25 11:45:12;;;;;;;1999.90;999.90;;;25.10;99.90;;;;;;5026168;28;20060;-75
2023/09/25 11:47:37;;;;;;;1999.90;999.90;;;25.20;99.90;;;;;;5025066;28;20021;-77
2023/09/25 11:50:03;;;;;;;1999.90;999.90;;;25.10;99.90;;;;;;5023707;28;20812;-77
2023/09/25 11:52:29;;;;;;;1999.90;999.90;;;25.00;99.90;;;;;;5024393;28;20036;-79
2023/09/25 11:54:55;;;;;;;1999.90;999.90;;;25.10;99.90;;;;;;5024741;28;20778;-75
2023/09/25 11:57:20;;;;;;;1999.90;999.90;;;25.10;99.90;;;;;;5018688;28;20040;-76